Racecast

Asia Lopez

Fast Forward VPAL TC (CA) · - · Compare head to head

Athlete rating 96.0 2013 TF season
Best race 97.6 TF
Races 59
Seasons 3 2013 — 2015

RankedNation #8282·CA #483·Team #7 ?

Rating scale ?
Speed rating — all races

Track & Field

TF speed rating

2015 TF 92.1

Fast Forward VPAL TC (CA) · Grade -

Date Meet Event Result Place Rating Difficulty PR/SR Flags
2015-07-12 Hampton-Phillips Track Club javelin 10.40m -0.024
2015-07-12 Hampton-Phillips Track Club 400m 1:28.45 15th · 2nd on team -0.024
2015-07-12 Hampton-Phillips Track Club 1500m 6:24.31 6th · 1st on team -0.024 ★PR SR
2015-05-16 3M Track Club Track and Field Invitation javelin 8.80m -0.028
2015-05-16 3M Track Club Track and Field Invitation 800m 3:13.67 20th · 1st on team 95.2 -0.028 ★PR SR RSR
2015-05-16 3M Track Club Track and Field Invitation 1500m 6:36.51 13th · 1st on team 97.6 -0.028 PR ★R SR RSR
2015-04-18 Phoenix Invitational javelin 10.75m -0.033
2015-04-18 Phoenix Invitational javelin 35-03 -0.033
2015-04-18 Phoenix Invitational 400m 1:35.06 93rd · 1st on team -0.033
2015-04-18 Phoenix Invitational 400m 1:35.06 93rd · 1st on team -0.033
2015-04-18 Phoenix Invitational 800m 3:23.53 37th · 1st on team 90.2 -0.033
2015-04-18 Phoenix Invitational 800m 3:23.53 37th · 1st on team 90.2 -0.033
2015-04-11 Big Valley Track Club Invitational javelin 8.70m -0.027
2015-04-11 Big Valley Track Club Invitational 800m 3:19.13 13th · 1st on team 92.9 -0.027 PR SR RSR
2015-04-11 Big Valley Track Club Invitational 400m 1:31.82 29th · 2nd on team -0.027
2015-03-28 Contra Costa Cheetahs 800m 3:35.84 13th · 2nd on team 86.6 -0.017 SR RSR
2015-03-28 Contra Costa Cheetahs 100m 18.58 79th · 2nd on team -0.017 ★PR SR
2015-03-21 RPM Legacy javelin 25-03 -0.020
2015-03-21 RPM Legacy 400m 1:27.99 52nd · 2nd on team -0.020 ★PR SR
2015-03-21 RPM Legacy 100m 18.59 101st · 2nd on team -0.020 PR SR

2014 TF 88.4

Fast Forward VPAL TC (CA) · Grade -

Date Meet Event Result Place Rating Difficulty PR/SR Flags
2014-06-20 USATF Pacific Assoc. Junior Olympics (Top 8) 400m 1:32.21 44th · 1st on team -0.031 PR SR
2014-06-20 USATF Pacific Assoc. Junior Olympics (Top 8) 800m 3:26.35 26th · 1st on team 89.0 -0.031
2014-06-20 USATF Pacific Assoc. Junior Olympics (Top 8) 200m 40.47 58th · 1st on team -0.031
2014-05-31 Pacific Association Championships (PAC) 200m 40.02 57th · 1st on team -0.024
2014-05-31 Pacific Association Championships (PAC) 800m 3:20.71 26th · 1st on team 92.3 -0.024 PR SR RSR
2014-05-24 Central Valley Roadrunners 400m 1:36.33 25th · 1st on team -0.026
2014-05-24 Central Valley Roadrunners 100m 18.85 15th · 1st on team -0.026 PR SR
2014-05-24 Central Valley Roadrunners 200m 39.89 36th · 1st on team -0.026 SR
2014-05-18 3M Invitational 200m 41.36 31st · 1st on team -0.028 SR
2014-05-18 3M Invitational 400m 1:33.58 24th · 1st on team -0.028 PR SR
2014-05-18 3M Invitational 800m 3:35 11th · 1st on team 85.8 -0.028
2014-04-05 Sacramento Speed Showcase 200m 42.59 31st · 1st on team -0.033 SR
2014-04-05 Sacramento Speed Showcase 800m 3:31.8 21st · 1st on team 86.5 -0.033 SR RSR
2014-04-05 Sacramento Speed Showcase 400m 1:42.62 51st · 1st on team -0.033 SR
2014-03-29 East County Cheetahs TC 100m 19.85 31st · 1st on team -0.017 SR

2013 TF 84.2

Fast Forward VPAL TC (CA) · Grade -

Date Meet Event Result Place Rating Difficulty PR/SR Flags
2013-07-12 Track City Classic javelin 6.96m -0.035
2013-07-12 Track City Classic 400m 1:35.82 23rd · 1st on team -0.035
2013-07-12 Track City Classic 800m 3:36.85 12th · 1st on team 56.6 -0.035
2013-06-08 Pacific Association Youth Championship (PAC) - 2-day meet 100m 19.93 30th · 2nd on team -0.024
2013-06-08 Pacific Association Youth Championship (PAC) - 2-day meet 200m 40.93 26th · 2nd on team -0.024
2013-06-01 100 Black Men Tommie Smith 200m 43.22 33rd · 2nd on team -0.036
2013-06-01 100 Black Men Tommie Smith 800m 3:30.47 6th · 1st on team 94.6 -0.036
2013-06-01 100 Black Men Tommie Smith 100m 19.59 47th · 2nd on team -0.036 PR SR
2013-05-25 Central Valley Roadrunners (2-day meet) 200m 41.37 17th · 2nd on team -0.026
2013-05-25 Central Valley Roadrunners (2-day meet) 200m 41.3 15th · 1st on team -0.026
2013-05-25 Central Valley Roadrunners (2-day meet) 100m 20.43 15th · 1st on team -0.026
2013-05-25 Central Valley Roadrunners (2-day meet) 800m 3:26.83 4th · 1st on team 96.9 -0.026 PR R SR RSR
2013-05-18 3M Track Club 400m 1:36.21 15th · 1st on team -0.028
2013-05-18 3M Track Club 100m 20.03 61st · 1st on team -0.028 PR SR
2013-05-18 3M Track Club 200m 43.9 33rd · 1st on team -0.028
2013-05-04 Hercules / Running Rebels (2-day) 200m 42.73 37th · 1st on team -0.038
2013-05-04 Hercules / Running Rebels (2-day) 400m 1:34.87 17th · 1st on team -0.038 PR SR
2013-05-04 Hercules / Running Rebels (2-day) 100m 20.76 62nd · 1st on team -0.038
2013-04-20 Shor / Sheppard Classic 200m 37.93 12th · 1st on team -0.022 ★PR SR
2013-04-20 Shor / Sheppard Classic 100m 20.73 42nd · 1st on team -0.022 PR SR
2013-04-20 Shor / Sheppard Classic 800m 3:47.96 7th · 1st on team 88.5 -0.022 PR R SR RSR
2013-04-13 CA Track Club 400m 1:43.56 16th · 1st on team -0.038 PR SR
2013-04-13 CA Track Club 200m 47.72 32nd · 1st on team -0.038 PR SR
2013-04-13 CA Track Club 100m 21.61 35th · 1st on team -0.038 PR SR